createdAt,value
2018-01-30T00:00:28.537Z,0.00
2018-01-30T00:01:28.539Z,0.00
2018-01-30T00:03:21.433Z,0.00
2018-01-30T00:04:21.455Z,0.00
2018-01-30T00:06:14.372Z,0.00
2018-01-30T00:07:14.373Z,0.00
2018-01-30T00:09:07.292Z,0.00
2018-01-30T00:10:07.291Z,0.00
2018-01-30T00:12:00.220Z,0.00
2018-01-30T00:13:00.219Z,0.00
2018-01-30T00:14:53.139Z,0.00
2018-01-30T00:15:53.153Z,0.00
2018-01-30T00:17:46.110Z,0.00
2018-01-30T00:18:46.070Z,0.00
2018-01-30T00:20:39.004Z,0.00
2018-01-30T00:21:38.991Z,0.00
2018-01-30T00:23:31.911Z,0.00
2018-01-30T00:24:31.910Z,0.00
2018-01-30T00:26:24.912Z,0.00
2018-01-30T00:27:24.827Z,0.00
2018-01-30T00:29:17.745Z,0.00
2018-01-30T00:30:17.746Z,0.00
2018-01-30T00:32:10.666Z,0.00
2018-01-30T00:33:10.662Z,0.00
2018-01-30T00:35:03.585Z,0.00
2018-01-30T00:36:03.581Z,0.00
2018-01-30T00:37:56.527Z,0.00
2018-01-30T00:38:56.526Z,0.00
2018-01-30T00:40:49.444Z,0.00
2018-01-30T00:41:49.444Z,0.00
2018-01-30T00:43:42.342Z,0.00
2018-01-30T00:44:42.361Z,0.00
2018-01-30T00:46:35.283Z,0.00
2018-01-30T00:47:35.281Z,0.00
2018-01-30T00:49:28.201Z,0.00
2018-01-30T00:50:28.199Z,0.00
2018-01-30T00:52:21.119Z,0.00
2018-01-30T00:53:21.119Z,0.00
2018-01-30T00:55:14.036Z,0.00
2018-01-30T00:56:14.069Z,0.00
2018-01-30T00:58:06.942Z,0.00
2018-01-30T00:59:06.956Z,0.00
2018-01-30T01:00:59.874Z,0.00
2018-01-30T01:01:59.873Z,0.00
2018-01-30T01:03:52.791Z,0.00
2018-01-30T01:04:52.791Z,0.00
2018-01-30T01:06:45.710Z,0.00
2018-01-30T01:07:45.710Z,0.00
2018-01-30T01:09:50.251Z,0.00
2018-01-30T01:10:49.727Z,0.00
2018-01-30T01:12:42.873Z,0.00
2018-01-30T01:13:42.873Z,0.00
2018-01-30T01:15:35.790Z,0.00
2018-01-30T01:16:35.789Z,0.00
2018-01-30T01:18:28.711Z,0.00
2018-01-30T01:19:28.708Z,0.00
2018-01-30T01:21:21.606Z,0.00
2018-01-30T01:22:21.627Z,0.00
2018-01-30T01:24:14.577Z,0.00
2018-01-30T01:25:14.545Z,0.00
2018-01-30T01:27:07.489Z,0.00
2018-01-30T01:28:07.464Z,0.00
2018-01-30T01:30:00.382Z,0.00
2018-01-30T01:31:00.382Z,0.00
2018-01-30T01:32:53.302Z,0.00
2018-01-30T01:33:53.301Z,0.00
2018-01-30T01:35:46.257Z,0.00
2018-01-30T01:36:46.219Z,0.00
2018-01-30T01:38:39.138Z,0.00
2018-01-30T01:39:39.139Z,0.00
2018-01-30T01:41:32.057Z,0.00
2018-01-30T01:42:32.058Z,0.00
2018-01-30T01:44:24.976Z,0.00
2018-01-30T01:45:24.979Z,0.00
2018-01-30T01:47:17.897Z,0.00
2018-01-30T01:48:17.897Z,0.00
2018-01-30T01:50:10.814Z,0.00
2018-01-30T01:51:10.811Z,0.00
2018-01-30T01:53:03.716Z,0.00
2018-01-30T01:54:03.728Z,0.00
2018-01-30T01:55:56.679Z,0.00
2018-01-30T01:56:56.699Z,0.00
2018-01-30T01:58:49.619Z,0.00
2018-01-30T01:59:49.620Z,0.00
2018-01-30T02:01:42.516Z,0.00
2018-01-30T02:02:42.538Z,0.00
2018-01-30T02:04:35.458Z,0.00
2018-01-30T02:05:35.458Z,0.00
2018-01-30T02:07:28.380Z,0.00
2018-01-30T02:08:28.378Z,0.00
2018-01-30T02:10:21.309Z,0.00
2018-01-30T02:11:21.297Z,0.00
2018-01-30T02:13:14.221Z,0.00
2018-01-30T02:14:14.220Z,0.00
2018-01-30T02:16:07.124Z,0.00
2018-01-30T02:17:07.139Z,0.00
2018-01-30T02:19:00.064Z,0.00
2018-01-30T02:20:00.060Z,0.00
2018-01-30T02:21:52.975Z,0.00
2018-01-30T02:22:52.992Z,0.00
2018-01-30T02:24:45.879Z,0.00
2018-01-30T02:25:45.900Z,0.00
2018-01-30T02:27:38.816Z,0.00
2018-01-30T02:28:38.813Z,0.00
2018-01-30T02:30:31.710Z,0.00
2018-01-30T02:31:31.736Z,0.00
2018-01-30T02:33:24.736Z,0.00
2018-01-30T02:34:24.651Z,0.00
2018-01-30T02:36:17.568Z,0.00
2018-01-30T02:37:17.571Z,0.00
2018-01-30T02:39:10.519Z,0.00
2018-01-30T02:40:10.487Z,0.00
2018-01-30T02:42:03.404Z,0.00
2018-01-30T02:43:03.410Z,0.00
2018-01-30T02:44:56.308Z,0.00
2018-01-30T02:45:56.321Z,0.00
2018-01-30T02:47:49.262Z,0.00
2018-01-30T02:48:49.281Z,0.00
2018-01-30T02:50:42.159Z,0.00
2018-01-30T02:51:42.163Z,0.00
2018-01-30T02:53:35.080Z,0.00
2018-01-30T02:54:35.080Z,0.00
2018-01-30T02:56:27.999Z,0.00
2018-01-30T02:57:27.999Z,0.00
2018-01-30T02:59:20.922Z,0.00
2018-01-30T03:00:20.916Z,0.00
2018-01-30T03:02:13.836Z,0.00
2018-01-30T03:03:13.836Z,0.00
2018-01-30T03:05:06.754Z,0.00
2018-01-30T03:06:06.754Z,0.00
2018-01-30T03:07:59.675Z,0.00
2018-01-30T03:08:59.673Z,0.00
2018-01-30T03:10:52.593Z,0.00
2018-01-30T03:11:52.592Z,0.00
2018-01-30T03:13:45.515Z,0.00
2018-01-30T03:14:45.515Z,0.00
2018-01-30T03:16:38.435Z,0.00
2018-01-30T03:17:38.434Z,0.00
2018-01-30T03:19:31.351Z,0.00
2018-01-30T03:20:31.352Z,0.00
2018-01-30T03:22:24.271Z,0.00
2018-01-30T03:23:24.269Z,0.00
2018-01-30T03:25:17.166Z,0.00
2018-01-30T03:26:17.186Z,0.00
2018-01-30T03:28:10.129Z,0.00
2018-01-30T03:29:10.104Z,0.00
2018-01-30T03:31:03.023Z,0.00
2018-01-30T03:32:03.021Z,0.00
2018-01-30T03:33:55.926Z,0.00
2018-01-30T03:34:55.940Z,0.00
2018-01-30T03:36:48.859Z,0.00
2018-01-30T03:37:48.861Z,0.00
2018-01-30T03:39:41.785Z,0.00
2018-01-30T03:40:41.816Z,0.00
2018-01-30T03:42:34.696Z,0.00
2018-01-30T03:43:34.695Z,0.00
2018-01-30T03:45:27.615Z,0.00
2018-01-30T03:46:27.638Z,0.00
2018-01-30T03:48:20.511Z,0.00
2018-01-30T03:49:20.533Z,0.00
2018-01-30T03:51:13.463Z,0.00
2018-01-30T03:52:13.453Z,0.00
2018-01-30T03:54:06.372Z,0.00
2018-01-30T03:55:06.372Z,0.00
2018-01-30T03:56:59.290Z,0.00
2018-01-30T03:57:59.290Z,0.00
2018-01-30T03:59:52.434Z,0.00
2018-01-30T04:00:52.434Z,0.00
2018-01-30T04:02:45.384Z,0.00
2018-01-30T04:03:45.352Z,0.00
2018-01-30T04:05:38.268Z,0.00
2018-01-30T04:06:38.270Z,0.00
2018-01-30T04:08:31.187Z,0.00
2018-01-30T04:09:31.222Z,0.00
2018-01-30T04:11:24.108Z,0.00
2018-01-30T04:12:24.108Z,0.00
2018-01-30T04:14:17.025Z,0.00
2018-01-30T04:15:17.060Z,0.00
2018-01-30T04:17:09.945Z,0.00
2018-01-30T04:18:09.945Z,0.00
2018-01-30T04:20:02.863Z,0.00
2018-01-30T04:21:02.875Z,0.00
2018-01-30T04:22:55.782Z,0.00
2018-01-30T04:23:55.782Z,0.00
2018-01-30T04:25:48.682Z,0.00
2018-01-30T04:26:48.737Z,0.00
2018-01-30T04:28:41.622Z,0.00
2018-01-30T04:29:41.618Z,0.00
2018-01-30T04:31:34.553Z,0.00
2018-01-30T04:32:34.553Z,0.00
2018-01-30T04:34:27.483Z,0.00
2018-01-30T04:35:27.468Z,0.00
2018-01-30T04:37:20.388Z,0.00
2018-01-30T04:38:20.387Z,0.00
2018-01-30T04:40:13.331Z,0.00
2018-01-30T04:41:13.330Z,0.00
2018-01-30T04:43:17.347Z,0.00
2018-01-30T04:44:17.349Z,0.00
2018-01-30T04:46:10.266Z,0.00
2018-01-30T04:47:10.266Z,0.00
2018-01-30T04:49:03.185Z,0.00
2018-01-30T04:50:03.187Z,0.00
2018-01-30T04:51:56.114Z,0.00
2018-01-30T04:52:56.103Z,0.00
2018-01-30T04:54:49.024Z,0.00
2018-01-30T04:55:49.020Z,0.00
2018-01-30T04:57:41.966Z,0.00
2018-01-30T04:58:41.939Z,0.00
2018-01-30T05:00:34.861Z,0.00
2018-01-30T05:01:34.857Z,0.00
2018-01-30T05:03:27.794Z,0.00
2018-01-30T05:04:27.779Z,0.00
2018-01-30T05:06:20.687Z,0.00
2018-01-30T05:07:20.695Z,0.00
2018-01-30T05:09:13.629Z,0.00
2018-01-30T05:10:13.615Z,0.00
2018-01-30T05:12:06.554Z,0.00
2018-01-30T05:13:06.567Z,0.00
2018-01-30T05:14:59.464Z,0.00
2018-01-30T05:15:59.490Z,0.00
2018-01-30T05:17:52.453Z,0.00
2018-01-30T05:18:52.451Z,0.00
2018-01-30T05:20:45.374Z,0.00
2018-01-30T05:21:45.406Z,0.00
2018-01-30T05:23:38.295Z,0.00
2018-01-30T05:24:38.288Z,0.00
2018-01-30T05:26:31.186Z,0.00
2018-01-30T05:27:31.205Z,0.00
2018-01-30T05:29:24.124Z,552.00
2018-01-30T05:30:24.125Z,548.00
2018-01-30T05:32:17.044Z,548.00
2018-01-30T05:33:17.043Z,548.00
2018-01-30T05:35:09.961Z,544.00
2018-01-30T05:36:09.962Z,544.00
2018-01-30T05:38:03.086Z,544.00
2018-01-30T05:39:03.107Z,544.00
2018-01-30T05:40:56.109Z,544.00
2018-01-30T05:41:56.027Z,544.00
2018-01-30T05:43:48.923Z,540.00
2018-01-30T05:44:48.944Z,544.00
2018-01-30T05:46:41.850Z,540.00
2018-01-30T05:47:41.864Z,544.00
2018-01-30T05:49:34.784Z,544.00
2018-01-30T05:50:34.782Z,544.00
2018-01-30T05:52:27.701Z,540.00
2018-01-30T05:53:27.700Z,540.00
2018-01-30T05:55:20.618Z,540.00
2018-01-30T05:56:20.624Z,536.00
2018-01-30T05:58:13.537Z,536.00
2018-01-30T05:59:13.537Z,536.00
2018-01-30T06:01:06.456Z,540.00
2018-01-30T06:02:06.456Z,540.00
2018-01-30T06:03:59.358Z,540.00
2018-01-30T06:04:59.400Z,540.00
2018-01-30T06:06:52.314Z,540.00
2018-01-30T06:07:52.292Z,540.00
2018-01-30T06:09:45.211Z,540.00
2018-01-30T06:10:45.211Z,540.00
2018-01-30T06:12:38.133Z,540.00
2018-01-30T06:13:38.135Z,540.00
2018-01-30T06:15:31.032Z,540.00
2018-01-30T06:16:31.051Z,540.00
2018-01-30T06:18:23.970Z,540.00
2018-01-30T06:19:23.971Z,540.00
2018-01-30T06:21:16.949Z,540.00
2018-01-30T06:22:16.888Z,540.00
2018-01-30T06:24:09.809Z,540.00
2018-01-30T06:25:09.809Z,540.00
2018-01-30T06:27:02.715Z,540.00
2018-01-30T06:28:02.726Z,540.00
2018-01-30T06:29:55.625Z,540.00
2018-01-30T06:30:55.682Z,540.00
2018-01-30T06:32:48.551Z,544.00
2018-01-30T06:33:48.566Z,544.00
2018-01-30T06:35:41.482Z,540.00
2018-01-30T06:36:41.484Z,540.00
2018-01-30T06:38:34.403Z,544.00
2018-01-30T06:39:34.402Z,544.00
2018-01-30T06:41:27.302Z,544.00
2018-01-30T06:42:27.320Z,544.00
2018-01-30T06:44:20.243Z,544.00
2018-01-30T06:45:20.241Z,548.00
2018-01-30T06:47:13.145Z,548.00
2018-01-30T06:48:13.159Z,544.00
2018-01-30T06:50:06.079Z,552.00
2018-01-30T06:51:06.077Z,552.00
2018-01-30T06:52:58.998Z,548.00
2018-01-30T06:53:58.996Z,552.00
2018-01-30T06:55:51.923Z,552.00
2018-01-30T06:56:51.917Z,552.00
2018-01-30T06:58:44.815Z,556.00
2018-01-30T06:59:44.866Z,560.00
2018-01-30T07:01:37.756Z,560.00
2018-01-30T07:02:37.757Z,564.00
2018-01-30T07:04:30.674Z,564.00
2018-01-30T07:05:30.706Z,564.00
2018-01-30T07:07:23.581Z,568.00
2018-01-30T07:08:23.594Z,568.00
2018-01-30T07:10:16.500Z,572.00
2018-01-30T07:11:16.512Z,576.00
2018-01-30T07:13:09.434Z,580.00
2018-01-30T07:14:09.432Z,580.00
2018-01-30T07:16:02.366Z,580.00
2018-01-30T07:17:02.361Z,584.00
2018-01-30T07:18:55.367Z,588.00
2018-01-30T07:19:55.367Z,588.00
2018-01-30T07:21:48.285Z,592.00
2018-01-30T07:22:48.285Z,588.00
2018-01-30T07:24:41.183Z,596.00
2018-01-30T07:25:41.204Z,600.00
2018-01-30T07:27:34.122Z,600.00
2018-01-30T07:28:34.123Z,600.00
2018-01-30T07:30:27.040Z,604.00
2018-01-30T07:31:27.040Z,604.00
2018-01-30T07:33:19.982Z,612.00
2018-01-30T07:34:19.959Z,608.00
2018-01-30T07:36:12.857Z,608.00
2018-01-30T07:37:12.877Z,612.00
2018-01-30T07:39:05.784Z,616.00
2018-01-30T07:40:05.797Z,612.00
2018-01-30T07:41:58.744Z,616.00
2018-01-30T07:42:58.716Z,616.00
2018-01-30T07:44:51.616Z,620.00
2018-01-30T07:45:51.637Z,620.00
2018-01-30T07:47:44.556Z,624.00
2018-01-30T07:48:44.556Z,624.00
2018-01-30T07:50:37.476Z,628.00
2018-01-30T07:51:37.478Z,628.00
2018-01-30T07:53:30.399Z,632.00
2018-01-30T07:54:30.404Z,632.00
2018-01-30T07:56:23.350Z,636.00
2018-01-30T07:57:23.322Z,636.00
2018-01-30T07:59:16.247Z,644.00
2018-01-30T08:00:16.249Z,644.00
2018-01-30T08:02:09.173Z,656.00
2018-01-30T08:03:09.165Z,652.00
2018-01-30T08:05:02.084Z,660.00
2018-01-30T08:06:02.083Z,664.00
2018-01-30T08:07:55.003Z,672.00
2018-01-30T08:08:55.003Z,676.00
2018-01-30T08:10:47.927Z,680.00
2018-01-30T08:11:47.922Z,688.00
2018-01-30T08:13:40.858Z,692.00
2018-01-30T08:14:40.842Z,696.00
2018-01-30T08:16:33.763Z,700.00
2018-01-30T08:17:33.799Z,704.00
2018-01-30T08:19:26.724Z,708.00
2018-01-30T08:20:26.693Z,716.00
2018-01-30T08:22:19.695Z,720.00
2018-01-30T08:23:19.609Z,728.00
2018-01-30T08:25:12.532Z,732.00
2018-01-30T08:26:12.535Z,732.00
2018-01-30T08:28:05.442Z,744.00
2018-01-30T08:29:05.479Z,748.00
2018-01-30T08:30:05.503Z,748.00
2018-01-30T08:31:05.535Z,752.00
2018-01-30T08:32:05.533Z,752.00
2018-01-30T08:33:05.593Z,756.00
2018-01-30T08:34:05.603Z,752.00
2018-01-30T08:35:05.628Z,756.00
2018-01-30T08:36:05.648Z,752.00
2018-01-30T08:37:05.676Z,756.00
2018-01-30T08:38:05.707Z,756.00
2018-01-30T08:39:05.734Z,756.00
2018-01-30T08:40:05.787Z,752.00
2018-01-30T08:41:05.792Z,752.00
2018-01-30T08:42:05.821Z,752.00
2018-01-30T08:43:05.850Z,760.00
2018-01-30T08:44:05.891Z,760.00
2018-01-30T08:45:06.513Z,760.00
2018-01-30T08:46:05.944Z,760.00
2018-01-30T08:47:05.971Z,764.00
2018-01-30T08:48:05.995Z,768.00
2018-01-30T08:49:06.021Z,772.00
2018-01-30T08:50:06.051Z,772.00
2018-01-30T08:51:06.078Z,772.00
2018-01-30T08:52:06.106Z,768.00
2018-01-30T08:53:07.011Z,776.00
2018-01-30T08:54:06.165Z,780.00
2018-01-30T08:55:06.233Z,784.00
2018-01-30T08:56:06.222Z,784.00
2018-01-30T08:57:06.251Z,788.00
2018-01-30T08:58:06.282Z,788.00
2018-01-30T08:59:06.307Z,780.00
2018-01-30T09:00:06.336Z,780.00
2018-01-30T09:01:06.365Z,780.00
2018-01-30T09:02:06.394Z,780.00
2018-01-30T09:03:06.422Z,776.00
2018-01-30T09:04:06.468Z,780.00
2018-01-30T09:05:06.480Z,784.00
2018-01-30T09:06:06.540Z,788.00
2018-01-30T09:07:06.537Z,780.00
2018-01-30T09:08:06.565Z,780.00
2018-01-30T09:09:06.594Z,788.00
2018-01-30T09:10:06.623Z,792.00
2018-01-30T09:11:06.654Z,792.00
2018-01-30T09:12:06.708Z,792.00
2018-01-30T09:13:06.709Z,796.00
2018-01-30T09:14:06.738Z,792.00
2018-01-30T09:15:06.766Z,804.00
2018-01-30T09:16:06.804Z,820.00
2018-01-30T09:17:06.823Z,824.00
2018-01-30T09:18:06.877Z,816.00
2018-01-30T09:19:06.881Z,812.00
2018-01-30T09:20:06.911Z,808.00
2018-01-30T09:21:06.946Z,812.00
2018-01-30T09:22:06.968Z,816.00
2018-01-30T09:23:07.031Z,824.00
2018-01-30T09:24:07.049Z,824.00
2018-01-30T09:25:07.056Z,828.00
2018-01-30T09:26:07.086Z,828.00
2018-01-30T09:27:07.110Z,828.00
2018-01-30T09:28:07.140Z,824.00
2018-01-30T09:29:07.168Z,832.00
2018-01-30T09:30:07.203Z,824.00
2018-01-30T09:31:07.225Z,812.00
2018-01-30T09:32:07.284Z,804.00
2018-01-30T09:33:07.282Z,820.00
2018-01-30T09:34:07.311Z,820.00
2018-01-30T09:35:07.340Z,836.00
2018-01-30T09:36:07.389Z,848.00
2018-01-30T09:37:07.404Z,860.00
2018-01-30T09:38:07.426Z,864.00
2018-01-30T09:39:07.487Z,872.00
2018-01-30T09:40:07.489Z,880.00
2018-01-30T09:41:07.535Z,876.00
2018-01-30T09:42:07.557Z,880.00
2018-01-30T09:43:07.569Z,872.00
2018-01-30T09:44:07.599Z,856.00
2018-01-30T09:45:07.627Z,856.00
2018-01-30T09:46:07.655Z,856.00
2018-01-30T09:47:07.686Z,860.00
2018-01-30T09:48:07.713Z,868.00
2018-01-30T09:49:07.742Z,868.00
2018-01-30T09:50:07.772Z,864.00
2018-01-30T09:51:07.798Z,860.00
2018-01-30T09:52:07.828Z,884.00
2018-01-30T09:53:07.857Z,872.00
2018-01-30T09:54:07.885Z,864.00
2018-01-30T09:55:07.913Z,888.00
2018-01-30T09:56:07.942Z,888.00
2018-01-30T09:57:07.973Z,880.00
2018-01-30T09:58:08.000Z,896.00
2018-01-30T09:59:08.029Z,888.00
2018-01-30T10:00:08.058Z,876.00
2018-01-30T10:01:15.195Z,868.00
2018-01-30T10:03:01.111Z,876.00
2018-01-30T10:04:01.006Z,892.00
2018-01-30T10:05:53.903Z,904.00
2018-01-30T10:06:53.923Z,920.00
2018-01-30T10:08:46.848Z,932.00
2018-01-30T10:09:46.843Z,932.00
2018-01-30T10:11:40.310Z,936.00
2018-01-30T10:12:39.760Z,936.00
2018-01-30T10:14:32.684Z,924.00
2018-01-30T10:15:32.682Z,928.00
2018-01-30T10:17:25.602Z,924.00
2018-01-30T10:18:25.604Z,912.00
2018-01-30T10:20:18.529Z,900.00
2018-01-30T10:21:18.525Z,884.00
2018-01-30T10:23:11.459Z,904.00
2018-01-30T10:24:11.440Z,908.00
2018-01-30T10:26:04.358Z,908.00
2018-01-30T10:27:04.358Z,904.00
2018-01-30T10:28:57.513Z,900.00
2018-01-30T10:29:57.505Z,900.00
2018-01-30T10:31:50.410Z,888.00
2018-01-30T10:32:50.422Z,884.00
2018-01-30T10:34:43.368Z,876.00
2018-01-30T10:35:43.366Z,884.00
2018-01-30T10:37:36.316Z,888.00
2018-01-30T10:38:36.283Z,896.00
2018-01-30T10:40:29.203Z,892.00
2018-01-30T10:41:29.201Z,892.00
2018-01-30T10:43:22.099Z,908.00
2018-01-30T10:44:22.121Z,912.00
2018-01-30T10:46:15.038Z,940.00
2018-01-30T10:47:15.037Z,940.00
2018-01-30T10:49:07.971Z,928.00
2018-01-30T10:50:07.969Z,916.00
2018-01-30T10:52:00.864Z,896.00
2018-01-30T10:53:00.885Z,892.00
2018-01-30T10:54:53.807Z,868.00
2018-01-30T10:55:53.816Z,872.00
2018-01-30T10:57:46.727Z,812.00
2018-01-30T10:58:46.722Z,776.00
2018-01-30T11:00:39.677Z,752.00
2018-01-30T11:01:39.647Z,764.00
2018-01-30T11:03:32.572Z,788.00
2018-01-30T11:04:32.560Z,776.00
2018-01-30T11:06:25.479Z,792.00
2018-01-30T11:07:25.480Z,804.00
2018-01-30T11:09:18.398Z,812.00
2018-01-30T11:10:18.397Z,816.00
2018-01-30T11:12:11.323Z,772.00
2018-01-30T11:13:11.323Z,744.00
2018-01-30T11:15:04.281Z,704.00
2018-01-30T11:16:04.239Z,700.00
2018-01-30T11:17:57.244Z,696.00
2018-01-30T11:18:57.173Z,700.00
2018-01-30T11:20:50.064Z,704.00
2018-01-30T11:21:50.086Z,700.00
2018-01-30T11:23:43.007Z,700.00
2018-01-30T11:24:43.028Z,712.00
2018-01-30T11:26:35.911Z,720.00
2018-01-30T11:27:35.923Z,720.00
2018-01-30T11:29:28.856Z,716.00
2018-01-30T11:30:28.842Z,720.00
2018-01-30T11:32:21.762Z,700.00
2018-01-30T11:33:21.759Z,688.00
2018-01-30T11:35:14.678Z,688.00
2018-01-30T11:36:14.678Z,676.00
2018-01-30T11:38:07.597Z,672.00
2018-01-30T11:39:07.598Z,696.00
2018-01-30T11:41:00.516Z,700.00
2018-01-30T11:42:00.515Z,708.00
2018-01-30T11:43:53.435Z,724.00
2018-01-30T11:44:53.436Z,724.00
2018-01-30T11:46:46.354Z,716.00
2018-01-30T11:47:46.352Z,716.00
2018-01-30T11:49:39.276Z,708.00
2018-01-30T11:50:39.273Z,716.00
2018-01-30T11:52:32.193Z,724.00
2018-01-30T11:53:32.191Z,720.00
2018-01-30T11:55:25.086Z,724.00
2018-01-30T11:56:25.113Z,728.00
2018-01-30T11:58:18.041Z,724.00
2018-01-30T11:59:18.050Z,716.00
2018-01-30T12:01:10.946Z,692.00
2018-01-30T12:02:10.945Z,688.00
2018-01-30T12:04:03.891Z,680.00
2018-01-30T12:05:03.864Z,668.00
2018-01-30T12:06:56.796Z,676.00
2018-01-30T12:07:56.797Z,672.00
2018-01-30T12:09:49.694Z,672.00
2018-01-30T12:10:49.715Z,672.00
2018-01-30T12:12:42.633Z,664.00
2018-01-30T12:13:42.635Z,656.00
2018-01-30T12:15:35.571Z,676.00
2018-01-30T12:16:35.554Z,672.00
2018-01-30T12:18:28.472Z,668.00
2018-01-30T12:19:28.470Z,676.00
2018-01-30T12:21:21.390Z,672.00
2018-01-30T12:22:21.391Z,676.00
2018-01-30T12:23:21.419Z,680.00
2018-01-30T12:24:21.447Z,684.00
2018-01-30T12:25:21.476Z,680.00
2018-01-30T12:26:21.506Z,680.00
2018-01-30T12:27:21.534Z,680.00
2018-01-30T12:28:21.581Z,680.00
2018-01-30T12:29:21.591Z,680.00
2018-01-30T12:30:21.643Z,684.00
2018-01-30T12:31:21.651Z,684.00
2018-01-30T12:32:21.677Z,684.00
2018-01-30T12:33:21.707Z,684.00
2018-01-30T12:34:21.736Z,688.00
2018-01-30T12:35:21.765Z,692.00
2018-01-30T12:36:21.793Z,692.00
2018-01-30T12:37:21.821Z,696.00
2018-01-30T12:38:21.850Z,696.00
2018-01-30T12:39:21.882Z,696.00
2018-01-30T12:40:21.908Z,700.00
2018-01-30T12:41:21.945Z,704.00
2018-01-30T12:42:21.966Z,704.00
2018-01-30T12:43:21.996Z,700.00
2018-01-30T12:44:22.026Z,700.00
2018-01-30T12:45:22.059Z,700.00
2018-01-30T12:46:22.086Z,700.00
2018-01-30T12:47:22.150Z,704.00
2018-01-30T12:48:22.137Z,704.00
2018-01-30T12:49:22.197Z,700.00
2018-01-30T12:50:22.196Z,704.00
2018-01-30T12:51:22.227Z,704.00
2018-01-30T12:52:22.253Z,700.00
2018-01-30T12:53:22.281Z,700.00
2018-01-30T12:54:22.311Z,700.00
2018-01-30T12:55:22.339Z,700.00
2018-01-30T12:56:22.415Z,704.00
2018-01-30T12:57:22.431Z,700.00
2018-01-30T12:58:22.426Z,700.00
2018-01-30T12:59:22.455Z,700.00
2018-01-30T13:00:22.486Z,700.00
2018-01-30T13:01:22.511Z,696.00
2018-01-30T13:02:22.568Z,692.00
2018-01-30T13:03:22.571Z,692.00
2018-01-30T13:04:22.598Z,696.00
2018-01-30T13:05:22.629Z,696.00
2018-01-30T13:06:22.656Z,692.00
2018-01-30T13:07:22.684Z,692.00
2018-01-30T13:08:22.713Z,688.00
2018-01-30T13:09:22.742Z,688.00
2018-01-30T13:10:22.771Z,684.00
2018-01-30T13:11:22.800Z,680.00
2018-01-30T13:12:22.856Z,680.00
2018-01-30T13:13:22.862Z,672.00
2018-01-30T13:14:22.886Z,668.00
2018-01-30T13:15:22.914Z,660.00
2018-01-30T13:16:22.942Z,660.00
2018-01-30T13:17:22.971Z,652.00
2018-01-30T13:18:23.000Z,648.00
2018-01-30T13:19:23.030Z,644.00
2018-01-30T13:20:23.057Z,636.00
2018-01-30T13:21:23.086Z,632.00
2018-01-30T13:22:23.115Z,628.00
2018-01-30T13:23:23.144Z,620.00
2018-01-30T13:24:23.172Z,624.00
2018-01-30T13:25:23.201Z,620.00
2018-01-30T13:26:23.230Z,620.00
2018-01-30T13:27:23.259Z,620.00
2018-01-30T13:28:23.286Z,620.00
2018-01-30T13:29:23.316Z,616.00
2018-01-30T13:30:23.394Z,616.00
2018-01-30T13:31:23.402Z,616.00
2018-01-30T13:32:23.401Z,612.00
2018-01-30T13:33:23.430Z,612.00
2018-01-30T13:34:23.459Z,612.00
2018-01-30T13:35:23.491Z,612.00
2018-01-30T13:36:23.517Z,608.00
2018-01-30T13:37:23.565Z,604.00
2018-01-30T13:38:23.574Z,600.00
2018-01-30T13:39:23.604Z,596.00
2018-01-30T13:40:23.632Z,596.00
2018-01-30T13:41:23.659Z,596.00
2018-01-30T13:42:23.694Z,588.00
2018-01-30T13:43:23.717Z,588.00
2018-01-30T13:44:23.749Z,588.00
2018-01-30T13:45:23.775Z,584.00
2018-01-30T13:46:23.803Z,580.00
2018-01-30T13:47:23.833Z,580.00
2018-01-30T13:48:23.900Z,580.00
2018-01-30T13:49:23.892Z,580.00
2018-01-30T13:50:23.918Z,40.00
2018-01-30T13:51:23.946Z,40.00
2018-01-30T13:52:23.975Z,40.00
2018-01-30T13:53:24.005Z,36.00
2018-01-30T13:54:24.033Z,32.00
2018-01-30T13:55:24.061Z,32.00
2018-01-30T13:56:24.089Z,28.00
2018-01-30T13:57:24.121Z,28.00
2018-01-30T13:58:24.149Z,28.00
2018-01-30T13:59:24.178Z,24.00
2018-01-30T14:00:24.204Z,20.00
2018-01-30T14:01:24.233Z,24.00
2018-01-30T14:02:24.262Z,24.00
2018-01-30T14:03:24.292Z,28.00
2018-01-30T14:04:24.318Z,28.00
2018-01-30T14:05:24.348Z,24.00
2018-01-30T14:06:24.377Z,28.00
2018-01-30T14:07:24.406Z,24.00
2018-01-30T14:08:24.434Z,24.00
2018-01-30T14:09:24.466Z,20.00
2018-01-30T14:10:24.492Z,28.00
2018-01-30T14:11:24.521Z,24.00
2018-01-30T14:12:24.548Z,24.00
2018-01-30T14:13:24.577Z,16.00
2018-01-30T14:14:24.606Z,16.00
2018-01-30T14:15:24.674Z,12.00
2018-01-30T14:16:24.663Z,16.00
2018-01-30T14:17:24.691Z,12.00
2018-01-30T14:18:24.720Z,12.00
2018-01-30T14:19:24.750Z,8.00
2018-01-30T14:20:24.777Z,12.00
2018-01-30T14:21:24.806Z,8.00
2018-01-30T14:22:24.885Z,8.00
2018-01-30T14:23:24.864Z,8.00
2018-01-30T14:24:24.892Z,8.00
2018-01-30T14:25:24.921Z,4.00
2018-01-30T14:26:24.950Z,8.00
2018-01-30T14:27:24.978Z,4.00
2018-01-30T14:28:25.015Z,4.00
2018-01-30T14:29:25.039Z,4.00
2018-01-30T14:30:25.064Z,4.00
2018-01-30T14:31:25.094Z,4.00
2018-01-30T14:32:25.121Z,4.00
2018-01-30T14:33:25.150Z,4.00
2018-01-30T14:34:25.178Z,4.00
2018-01-30T14:35:25.227Z,4.00
2018-01-30T14:36:25.236Z,4.00
2018-01-30T14:37:25.264Z,0.00
2018-01-30T14:38:25.293Z,0.00
2018-01-30T14:39:25.321Z,0.00
2018-01-30T14:40:25.349Z,0.00
2018-01-30T14:41:25.379Z,0.00
2018-01-30T14:42:25.407Z,0.00
2018-01-30T14:43:25.455Z,0.00
2018-01-30T14:44:25.464Z,0.00
2018-01-30T14:45:25.493Z,0.00
2018-01-30T14:46:25.532Z,8.00
2018-01-30T14:47:25.553Z,0.00
2018-01-30T14:48:25.578Z,0.00
2018-01-30T14:49:25.606Z,0.00
2018-01-30T14:50:25.636Z,0.00
2018-01-30T14:51:25.701Z,0.00
2018-01-30T14:52:25.693Z,0.00
2018-01-30T14:53:25.722Z,0.00
2018-01-30T14:54:25.750Z,0.00
2018-01-30T14:55:25.803Z,0.00
2018-01-30T14:56:25.834Z,0.00
2018-01-30T14:57:25.837Z,0.00
2018-01-30T14:58:25.865Z,8.00
2018-01-30T14:59:25.899Z,8.00
2018-01-30T15:00:25.921Z,8.00
2018-01-30T15:01:25.951Z,8.00
2018-01-30T15:02:25.991Z,8.00
2018-01-30T15:03:26.032Z,8.00
2018-01-30T15:04:26.047Z,8.00
2018-01-30T15:05:26.064Z,8.00
2018-01-30T15:06:26.093Z,8.00
2018-01-30T15:07:26.122Z,8.00
2018-01-30T15:08:26.150Z,8.00
2018-01-30T15:09:26.178Z,0.00
2018-01-30T15:10:26.209Z,0.00
2018-01-30T15:11:26.236Z,0.00
2018-01-30T15:12:26.264Z,0.00
2018-01-30T15:13:26.292Z,0.00
2018-01-30T15:14:26.321Z,0.00
2018-01-30T15:15:26.350Z,0.00
2018-01-30T15:16:26.397Z,0.00
2018-01-30T15:17:26.407Z,0.00
2018-01-30T15:18:26.435Z,0.00
2018-01-30T15:19:26.464Z,0.00
2018-01-30T15:20:26.492Z,0.00
2018-01-30T15:21:26.537Z,0.00
2018-01-30T15:22:26.549Z,0.00
2018-01-30T15:23:26.579Z,0.00
2018-01-30T15:24:26.606Z,0.00
2018-01-30T15:25:26.635Z,0.00
2018-01-30T15:26:26.665Z,0.00
2018-01-30T15:27:26.692Z,0.00
2018-01-30T15:28:26.720Z,0.00
2018-01-30T15:29:26.749Z,0.00
2018-01-30T15:30:26.778Z,0.00
2018-01-30T15:31:26.807Z,0.00
2018-01-30T15:32:26.834Z,0.00
2018-01-30T15:33:26.862Z,0.00
2018-01-30T15:34:26.892Z,0.00
2018-01-30T15:35:26.920Z,0.00
2018-01-30T15:36:26.953Z,0.00
2018-01-30T15:37:26.977Z,0.00
2018-01-30T15:38:27.006Z,0.00
2018-01-30T15:39:27.034Z,0.00
2018-01-30T15:40:27.062Z,0.00
2018-01-30T15:41:27.126Z,0.00
2018-01-30T15:42:27.121Z,0.00
2018-01-30T15:43:27.149Z,0.00
2018-01-30T15:44:27.177Z,0.00
2018-01-30T15:45:27.205Z,0.00
2018-01-30T15:46:27.234Z,0.00
2018-01-30T15:47:27.298Z,0.00
2018-01-30T15:48:27.291Z,0.00
2018-01-30T15:49:27.319Z,0.00
2018-01-30T15:50:27.348Z,0.00
2018-01-30T15:51:27.404Z,0.00
2018-01-30T15:52:27.404Z,0.00
2018-01-30T15:53:27.436Z,0.00
2018-01-30T15:54:27.461Z,8.00
2018-01-30T15:55:27.491Z,548.00
2018-01-30T15:56:27.524Z,544.00
2018-01-30T15:57:27.547Z,544.00
2018-01-30T15:58:27.575Z,544.00
2018-01-30T15:59:27.604Z,540.00
2018-01-30T16:00:27.632Z,540.00
2018-01-30T16:01:27.662Z,540.00
2018-01-30T16:02:27.706Z,536.00
2018-01-30T16:03:27.718Z,536.00
2018-01-30T16:04:27.750Z,540.00
2018-01-30T16:05:27.775Z,540.00
2018-01-30T16:06:27.804Z,540.00
2018-01-30T16:07:27.833Z,0.00
2018-01-30T16:08:27.874Z,0.00